sensor_id;sensor_type;location;lat;lon;timestamp;P1;durP1;ratioP1;P2;durP2;ratioP2
69910;SDS011;57194;50.156;14.518;2022-07-30T00:00:23;9.53;;;6.33;;
69910;SDS011;57194;50.156;14.518;2022-07-30T00:02:49;9.67;;;6.90;;
69910;SDS011;57194;50.156;14.518;2022-07-30T00:05:14;10.47;;;6.80;;
69910;SDS011;57194;50.156;14.518;2022-07-30T00:07:40;11.02;;;6.15;;
69910;SDS011;57194;50.156;14.518;2022-07-30T00:10:05;11.30;;;6.40;;
69910;SDS011;57194;50.156;14.518;2022-07-30T00:12:31;8.47;;;5.87;;
69910;SDS011;57194;50.156;14.518;2022-07-30T00:14:56;11.50;;;6.20;;
69910;SDS011;57194;50.156;14.518;2022-07-30T00:17:21;11.32;;;5.90;;
69910;SDS011;57194;50.156;14.518;2022-07-30T00:19:47;9.20;;;6.00;;
69910;SDS011;57194;50.156;14.518;2022-07-30T00:22:12;13.33;;;6.40;;
69910;SDS011;57194;50.156;14.518;2022-07-30T00:24:38;9.40;;;6.07;;
69910;SDS011;57194;50.156;14.518;2022-07-30T00:27:03;11.53;;;6.50;;
69910;SDS011;57194;50.156;14.518;2022-07-30T00:29:28;11.80;;;6.70;;
69910;SDS011;57194;50.156;14.518;2022-07-30T00:31:54;13.73;;;7.00;;
69910;SDS011;57194;50.156;14.518;2022-07-30T00:34:20;11.77;;;6.32;;
69910;SDS011;57194;50.156;14.518;2022-07-30T00:36:45;12.67;;;5.80;;
69910;SDS011;57194;50.156;14.518;2022-07-30T00:39:11;10.93;;;6.10;;
69910;SDS011;57194;50.156;14.518;2022-07-30T00:41:51;9.47;;;5.53;;
69910;SDS011;57194;50.156;14.518;2022-07-30T00:44:26;13.05;;;5.82;;
69910;SDS011;57194;50.156;14.518;2022-07-30T00:46:53;14.10;;;5.97;;
69910;SDS011;57194;50.156;14.518;2022-07-30T00:49:19;10.85;;;6.18;;
69910;SDS011;57194;50.156;14.518;2022-07-30T00:51:45;12.38;;;6.47;;
69910;SDS011;57194;50.156;14.518;2022-07-30T00:54:10;11.83;;;6.00;;
69910;SDS011;57194;50.156;14.518;2022-07-30T00:56:36;10.50;;;5.70;;
69910;SDS011;57194;50.156;14.518;2022-07-30T00:59:02;9.17;;;6.13;;
69910;SDS011;57194;50.156;14.518;2022-07-30T01:01:28;14.88;;;6.35;;
69910;SDS011;57194;50.156;14.518;2022-07-30T01:03:55;12.05;;;6.38;;
69910;SDS011;57194;50.156;14.518;2022-07-30T01:06:21;11.57;;;6.30;;
69910;SDS011;57194;50.156;14.518;2022-07-30T01:08:46;11.43;;;7.17;;
69910;SDS011;57194;50.156;14.518;2022-07-30T01:11:11;10.33;;;6.10;;
69910;SDS011;57194;50.156;14.518;2022-07-30T01:13:37;11.57;;;5.83;;
69910;SDS011;57194;50.156;14.518;2022-07-30T01:16:02;11.25;;;6.45;;
69910;SDS011;57194;50.156;14.518;2022-07-30T01:18:28;15.67;;;7.10;;
69910;SDS011;57194;50.156;14.518;2022-07-30T01:21:17;12.70;;;6.68;;
69910;SDS011;57194;50.156;14.518;2022-07-30T01:23:48;12.00;;;7.20;;
69910;SDS011;57194;50.156;14.518;2022-07-30T01:26:17;14.90;;;7.22;;
69910;SDS011;57194;50.156;14.518;2022-07-30T01:28:45;9.50;;;6.27;;
69910;SDS011;57194;50.156;14.518;2022-07-30T01:31:15;12.43;;;6.65;;
69910;SDS011;57194;50.156;14.518;2022-07-30T01:33:42;12.00;;;7.40;;
69910;SDS011;57194;50.156;14.518;2022-07-30T01:36:12;13.50;;;6.80;;
69910;SDS011;57194;50.156;14.518;2022-07-30T01:38:40;10.95;;;6.35;;
69910;SDS011;57194;50.156;14.518;2022-07-30T01:41:09;13.87;;;7.33;;
69910;SDS011;57194;50.156;14.518;2022-07-30T01:43:36;15.88;;;7.88;;
69910;SDS011;57194;50.156;14.518;2022-07-30T01:46:03;13.63;;;7.63;;
69910;SDS011;57194;50.156;14.518;2022-07-30T01:48:29;13.00;;;7.85;;
69910;SDS011;57194;50.156;14.518;2022-07-30T01:50:59;12.57;;;7.25;;
69910;SDS011;57194;50.156;14.518;2022-07-30T01:53:28;11.10;;;6.80;;
69910;SDS011;57194;50.156;14.518;2022-07-30T01:55:56;10.90;;;6.03;;
69910;SDS011;57194;50.156;14.518;2022-07-30T01:58:25;7.97;;;5.68;;
69910;SDS011;57194;50.156;14.518;2022-07-30T02:00:53;7.75;;;5.15;;
69910;SDS011;57194;50.156;14.518;2022-07-30T02:03:20;9.15;;;5.38;;
69910;SDS011;57194;50.156;14.518;2022-07-30T02:05:48;9.20;;;5.87;;
69910;SDS011;57194;50.156;14.518;2022-07-30T02:08:27;9.43;;;5.82;;
69910;SDS011;57194;50.156;14.518;2022-07-30T02:11:11;9.93;;;5.50;;
69910;SDS011;57194;50.156;14.518;2022-07-30T02:13:43;11.05;;;6.40;;
69910;SDS011;57194;50.156;14.518;2022-07-30T02:16:15;11.50;;;5.90;;
69910;SDS011;57194;50.156;14.518;2022-07-30T02:21:31;10.20;;;5.85;;
69910;SDS011;57194;50.156;14.518;2022-07-30T02:24:01;17.90;;;6.75;;
69910;SDS011;57194;50.156;14.518;2022-07-30T02:26:32;13.23;;;6.53;;
69910;SDS011;57194;50.156;14.518;2022-07-30T02:28:59;11.18;;;6.65;;
69910;SDS011;57194;50.156;14.518;2022-07-30T02:31:27;15.15;;;7.43;;
69910;SDS011;57194;50.156;14.518;2022-07-30T02:33:56;11.80;;;6.97;;
69910;SDS011;57194;50.156;14.518;2022-07-30T02:36:25;18.42;;;8.15;;
69910;SDS011;57194;50.156;14.518;2022-07-30T02:38:52;14.75;;;7.88;;
69910;SDS011;57194;50.156;14.518;2022-07-30T02:41:19;16.10;;;7.30;;
69910;SDS011;57194;50.156;14.518;2022-07-30T02:43:48;18.23;;;7.35;;
69910;SDS011;57194;50.156;14.518;2022-07-30T02:46:15;15.82;;;7.38;;
69910;SDS011;57194;50.156;14.518;2022-07-30T02:48:43;15.25;;;7.55;;
69910;SDS011;57194;50.156;14.518;2022-07-30T02:51:10;14.13;;;8.10;;
69910;SDS011;57194;50.156;14.518;2022-07-30T02:53:39;13.73;;;7.55;;
69910;SDS011;57194;50.156;14.518;2022-07-30T02:56:10;13.15;;;7.50;;
69910;SDS011;57194;50.156;14.518;2022-07-30T02:58:37;13.77;;;7.72;;
69910;SDS011;57194;50.156;14.518;2022-07-30T03:01:04;16.75;;;9.15;;
69910;SDS011;57194;50.156;14.518;2022-07-30T03:03:31;20.33;;;9.82;;
69910;SDS011;57194;50.156;14.518;2022-07-30T03:05:58;18.77;;;10.07;;
69910;SDS011;57194;50.156;14.518;2022-07-30T03:08:25;21.83;;;10.70;;
69910;SDS011;57194;50.156;14.518;2022-07-30T03:10:52;18.25;;;10.63;;
69910;SDS011;57194;50.156;14.518;2022-07-30T03:13:19;24.50;;;12.10;;
69910;SDS011;57194;50.156;14.518;2022-07-30T03:15:48;18.45;;;11.32;;
69910;SDS011;57194;50.156;14.518;2022-07-30T03:18:16;19.92;;;11.48;;
69910;SDS011;57194;50.156;14.518;2022-07-30T03:20:46;23.40;;;11.68;;
69910;SDS011;57194;50.156;14.518;2022-07-30T03:23:17;20.08;;;11.73;;
69910;SDS011;57194;50.156;14.518;2022-07-30T03:25:52;27.60;;;12.77;;
69910;SDS011;57194;50.156;14.518;2022-07-30T03:28:21;31.45;;;14.10;;
69910;SDS011;57194;50.156;14.518;2022-07-30T03:30:48;35.45;;;14.55;;
69910;SDS011;57194;50.156;14.518;2022-07-30T03:33:14;21.38;;;12.27;;
69910;SDS011;57194;50.156;14.518;2022-07-30T03:35:40;25.00;;;13.88;;
69910;SDS011;57194;50.156;14.518;2022-07-30T03:38:09;20.25;;;12.63;;
69910;SDS011;57194;50.156;14.518;2022-07-30T03:40:37;20.73;;;13.75;;
69910;SDS011;57194;50.156;14.518;2022-07-30T03:43:03;25.40;;;13.93;;
69910;SDS011;57194;50.156;14.518;2022-07-30T03:45:30;26.67;;;14.63;;
69910;SDS011;57194;50.156;14.518;2022-07-30T03:47:57;26.42;;;14.95;;
69910;SDS011;57194;50.156;14.518;2022-07-30T03:50:23;25.92;;;14.88;;
69910;SDS011;57194;50.156;14.518;2022-07-30T03:52:48;29.90;;;14.65;;
69910;SDS011;57194;50.156;14.518;2022-07-30T03:55:14;25.90;;;13.47;;
69910;SDS011;57194;50.156;14.518;2022-07-30T03:57:40;23.02;;;13.05;;
69910;SDS011;57194;50.156;14.518;2022-07-30T04:00:06;25.00;;;13.40;;
69910;SDS011;57194;50.156;14.518;2022-07-30T04:02:43;22.55;;;13.30;;
69910;SDS011;57194;50.156;14.518;2022-07-30T04:05:10;27.55;;;14.80;;
69910;SDS011;57194;50.156;14.518;2022-07-30T04:07:39;25.65;;;14.00;;
69910;SDS011;57194;50.156;14.518;2022-07-30T04:10:06;27.15;;;15.48;;
69910;SDS011;57194;50.156;14.518;2022-07-30T04:12:32;27.13;;;14.27;;
69910;SDS011;57194;50.156;14.518;2022-07-30T04:14:57;31.50;;;15.73;;
69910;SDS011;57194;50.156;14.518;2022-07-30T04:17:25;31.10;;;15.80;;
69910;SDS011;57194;50.156;14.518;2022-07-30T04:19:56;37.08;;;16.77;;
69910;SDS011;57194;50.156;14.518;2022-07-30T04:22:35;30.65;;;16.58;;
69910;SDS011;57194;50.156;14.518;2022-07-30T04:25:02;34.53;;;17.35;;
69910;SDS011;57194;50.156;14.518;2022-07-30T04:27:30;36.83;;;18.25;;
69910;SDS011;57194;50.156;14.518;2022-07-30T04:29:56;44.03;;;18.40;;
69910;SDS011;57194;50.156;14.518;2022-07-30T04:32:22;44.47;;;19.52;;
69910;SDS011;57194;50.156;14.518;2022-07-30T04:34:51;36.73;;;18.30;;
69910;SDS011;57194;50.156;14.518;2022-07-30T04:37:21;39.15;;;18.60;;
69910;SDS011;57194;50.156;14.518;2022-07-30T04:39:50;35.47;;;17.50;;
69910;SDS011;57194;50.156;14.518;2022-07-30T04:42:19;33.40;;;15.93;;
69910;SDS011;57194;50.156;14.518;2022-07-30T04:44:45;36.03;;;17.33;;
69910;SDS011;57194;50.156;14.518;2022-07-30T04:47:10;43.92;;;19.15;;
69910;SDS011;57194;50.156;14.518;2022-07-30T04:49:36;37.60;;;16.97;;
69910;SDS011;57194;50.156;14.518;2022-07-30T04:52:02;43.10;;;17.73;;
69910;SDS011;57194;50.156;14.518;2022-07-30T04:54:35;38.10;;;17.90;;
69910;SDS011;57194;50.156;14.518;2022-07-30T04:57:04;30.60;;;15.68;;
69910;SDS011;57194;50.156;14.518;2022-07-30T04:59:31;31.08;;;16.77;;
69910;SDS011;57194;50.156;14.518;2022-07-30T05:01:56;35.83;;;17.90;;
69910;SDS011;57194;50.156;14.518;2022-07-30T05:04:23;42.97;;;19.85;;
69910;SDS011;57194;50.156;14.518;2022-07-30T05:06:50;46.63;;;18.50;;
69910;SDS011;57194;50.156;14.518;2022-07-30T05:09:16;40.22;;;18.55;;
69910;SDS011;57194;50.156;14.518;2022-07-30T05:11:41;35.92;;;16.88;;
69910;SDS011;57194;50.156;14.518;2022-07-30T05:14:15;35.60;;;18.05;;
69910;SDS011;57194;50.156;14.518;2022-07-30T05:16:40;31.67;;;15.47;;
69910;SDS011;57194;50.156;14.518;2022-07-30T05:19:05;27.10;;;15.33;;
69910;SDS011;57194;50.156;14.518;2022-07-30T05:21:31;30.33;;;16.57;;
69910;SDS011;57194;50.156;14.518;2022-07-30T05:23:56;22.00;;;13.83;;
69910;SDS011;57194;50.156;14.518;2022-07-30T05:26:21;33.83;;;17.23;;
69910;SDS011;57194;50.156;14.518;2022-07-30T05:28:46;43.07;;;19.07;;
69910;SDS011;57194;50.156;14.518;2022-07-30T05:31:12;61.93;;;21.30;;
69910;SDS011;57194;50.156;14.518;2022-07-30T05:33:37;27.58;;;15.10;;
69910;SDS011;57194;50.156;14.518;2022-07-30T05:36:03;40.63;;;17.53;;
69910;SDS011;57194;50.156;14.518;2022-07-30T05:38:28;52.50;;;20.10;;
69910;SDS011;57194;50.156;14.518;2022-07-30T05:40:53;44.90;;;19.50;;
69910;SDS011;57194;50.156;14.518;2022-07-30T05:43:19;59.77;;;21.03;;
69910;SDS011;57194;50.156;14.518;2022-07-30T05:45:44;65.57;;;21.63;;
69910;SDS011;57194;50.156;14.518;2022-07-30T05:48:09;34.87;;;17.77;;
69910;SDS011;57194;50.156;14.518;2022-07-30T05:50:35;36.80;;;18.20;;
69910;SDS011;57194;50.156;14.518;2022-07-30T05:53:00;31.77;;;18.10;;
69910;SDS011;57194;50.156;14.518;2022-07-30T05:55:25;34.50;;;17.47;;
69910;SDS011;57194;50.156;14.518;2022-07-30T05:57:51;31.73;;;16.13;;
69910;SDS011;57194;50.156;14.518;2022-07-30T06:00:16;28.00;;;14.03;;
69910;SDS011;57194;50.156;14.518;2022-07-30T06:02:41;20.47;;;12.73;;
69910;SDS011;57194;50.156;14.518;2022-07-30T06:05:07;24.58;;;14.38;;
69910;SDS011;57194;50.156;14.518;2022-07-30T06:07:33;24.73;;;14.60;;
69910;SDS011;57194;50.156;14.518;2022-07-30T06:09:58;23.35;;;13.38;;
69910;SDS011;57194;50.156;14.518;2022-07-30T06:12:27;18.57;;;10.97;;
69910;SDS011;57194;50.156;14.518;2022-07-30T06:14:53;20.48;;;12.50;;
69910;SDS011;57194;50.156;14.518;2022-07-30T06:17:19;21.20;;;12.73;;
69910;SDS011;57194;50.156;14.518;2022-07-30T06:19:45;19.63;;;11.77;;
69910;SDS011;57194;50.156;14.518;2022-07-30T06:22:10;18.07;;;11.47;;
69910;SDS011;57194;50.156;14.518;2022-07-30T06:24:35;16.70;;;11.30;;
69910;SDS011;57194;50.156;14.518;2022-07-30T06:27:01;21.92;;;12.60;;
69910;SDS011;57194;50.156;14.518;2022-07-30T06:29:26;21.03;;;12.27;;
69910;SDS011;57194;50.156;14.518;2022-07-30T06:31:52;21.43;;;12.40;;
69910;SDS011;57194;50.156;14.518;2022-07-30T06:34:17;29.87;;;14.10;;
69910;SDS011;57194;50.156;14.518;2022-07-30T06:36:42;20.27;;;12.03;;
69910;SDS011;57194;50.156;14.518;2022-07-30T06:39:07;16.00;;;10.23;;
69910;SDS011;57194;50.156;14.518;2022-07-30T06:41:33;15.70;;;10.32;;
69910;SDS011;57194;50.156;14.518;2022-07-30T06:43:58;14.73;;;9.25;;
69910;SDS011;57194;50.156;14.518;2022-07-30T06:46:23;17.53;;;10.10;;
69910;SDS011;57194;50.156;14.518;2022-07-30T06:48:49;14.00;;;9.60;;
69910;SDS011;57194;50.156;14.518;2022-07-30T06:51:15;20.65;;;11.90;;
69910;SDS011;57194;50.156;14.518;2022-07-30T06:53:41;19.50;;;10.97;;
69910;SDS011;57194;50.156;14.518;2022-07-30T06:56:06;13.53;;;9.10;;
69910;SDS011;57194;50.156;14.518;2022-07-30T06:58:31;17.00;;;9.77;;
69910;SDS011;57194;50.156;14.518;2022-07-30T07:00:57;14.67;;;9.60;;
69910;SDS011;57194;50.156;14.518;2022-07-30T07:03:22;18.35;;;9.82;;
69910;SDS011;57194;50.156;14.518;2022-07-30T07:05:50;19.80;;;11.00;;
69910;SDS011;57194;50.156;14.518;2022-07-30T07:08:15;17.87;;;9.93;;
69910;SDS011;57194;50.156;14.518;2022-07-30T07:10:40;18.40;;;11.15;;
69910;SDS011;57194;50.156;14.518;2022-07-30T07:13:06;18.90;;;12.00;;
69910;SDS011;57194;50.156;14.518;2022-07-30T07:15:31;19.07;;;10.07;;
69910;SDS011;57194;50.156;14.518;2022-07-30T07:17:56;20.57;;;11.93;;
69910;SDS011;57194;50.156;14.518;2022-07-30T07:20:22;17.83;;;10.90;;
69910;SDS011;57194;50.156;14.518;2022-07-30T07:22:47;20.27;;;11.23;;
69910;SDS011;57194;50.156;14.518;2022-07-30T07:25:12;18.58;;;11.30;;
69910;SDS011;57194;50.156;14.518;2022-07-30T07:27:38;18.27;;;10.43;;
69910;SDS011;57194;50.156;14.518;2022-07-30T07:30:04;15.67;;;10.03;;
69910;SDS011;57194;50.156;14.518;2022-07-30T07:32:30;15.68;;;10.43;;
69910;SDS011;57194;50.156;14.518;2022-07-30T07:34:55;15.47;;;9.80;;
69910;SDS011;57194;50.156;14.518;2022-07-30T07:37:20;18.60;;;10.23;;
69910;SDS011;57194;50.156;14.518;2022-07-30T07:39:46;14.90;;;9.70;;
69910;SDS011;57194;50.156;14.518;2022-07-30T07:42:11;12.30;;;9.33;;
69910;SDS011;57194;50.156;14.518;2022-07-30T07:44:36;17.45;;;10.52;;
69910;SDS011;57194;50.156;14.518;2022-07-30T07:47:02;14.38;;;9.07;;
69910;SDS011;57194;50.156;14.518;2022-07-30T07:49:27;15.20;;;9.47;;
69910;SDS011;57194;50.156;14.518;2022-07-30T07:51:53;13.33;;;8.77;;
69910;SDS011;57194;50.156;14.518;2022-07-30T07:54:18;18.37;;;10.70;;
69910;SDS011;57194;50.156;14.518;2022-07-30T07:56:44;16.00;;;9.40;;
69910;SDS011;57194;50.156;14.518;2022-07-30T07:59:10;17.83;;;9.63;;
69910;SDS011;57194;50.156;14.518;2022-07-30T08:01:35;15.33;;;10.13;;
69910;SDS011;57194;50.156;14.518;2022-07-30T08:04:00;14.97;;;9.67;;
69910;SDS011;57194;50.156;14.518;2022-07-30T08:06:26;12.63;;;9.23;;
69910;SDS011;57194;50.156;14.518;2022-07-30T08:08:51;13.47;;;8.63;;
69910;SDS011;57194;50.156;14.518;2022-07-30T08:11:17;13.48;;;9.20;;
69910;SDS011;57194;50.156;14.518;2022-07-30T08:13:43;14.73;;;10.07;;
69910;SDS011;57194;50.156;14.518;2022-07-30T08:16:08;13.00;;;9.03;;
69910;SDS011;57194;50.156;14.518;2022-07-30T08:18:37;14.15;;;9.20;;
69910;SDS011;57194;50.156;14.518;2022-07-30T08:21:03;11.98;;;8.80;;
69910;SDS011;57194;50.156;14.518;2022-07-30T08:23:28;11.90;;;8.00;;
69910;SDS011;57194;50.156;14.518;2022-07-30T08:25:55;13.93;;;8.40;;
69910;SDS011;57194;50.156;14.518;2022-07-30T08:28:21;11.25;;;8.43;;
69910;SDS011;57194;50.156;14.518;2022-07-30T08:30:47;13.23;;;8.87;;
69910;SDS011;57194;50.156;14.518;2022-07-30T08:33:13;12.50;;;9.13;;
69910;SDS011;57194;50.156;14.518;2022-07-30T08:35:39;15.53;;;10.20;;
69910;SDS011;57194;50.156;14.518;2022-07-30T08:38:04;13.77;;;10.00;;
69910;SDS011;57194;50.156;14.518;2022-07-30T08:40:29;17.77;;;11.00;;
69910;SDS011;57194;50.156;14.518;2022-07-30T08:42:57;21.63;;;10.00;;
69910;SDS011;57194;50.156;14.518;2022-07-30T08:45:24;14.93;;;9.40;;
69910;SDS011;57194;50.156;14.518;2022-07-30T08:47:50;14.07;;;9.87;;
69910;SDS011;57194;50.156;14.518;2022-07-30T08:50:16;14.23;;;10.13;;
69910;SDS011;57194;50.156;14.518;2022-07-30T08:52:42;12.93;;;9.07;;
69910;SDS011;57194;50.156;14.518;2022-07-30T08:55:08;13.40;;;9.45;;
69910;SDS011;57194;50.156;14.518;2022-07-30T08:57:34;15.23;;;9.53;;
69910;SDS011;57194;50.156;14.518;2022-07-30T09:00:00;13.63;;;9.40;;
69910;SDS011;57194;50.156;14.518;2022-07-30T09:02:26;14.35;;;9.90;;
69910;SDS011;57194;50.156;14.518;2022-07-30T09:04:53;15.07;;;9.85;;
69910;SDS011;57194;50.156;14.518;2022-07-30T09:07:19;12.87;;;9.00;;
69910;SDS011;57194;50.156;14.518;2022-07-30T09:09:44;14.13;;;9.50;;
69910;SDS011;57194;50.156;14.518;2022-07-30T09:15:12;14.73;;;9.68;;
69910;SDS011;57194;50.156;14.518;2022-07-30T09:17:52;12.68;;;9.50;;
69910;SDS011;57194;50.156;14.518;2022-07-30T09:20:19;13.52;;;9.13;;
69910;SDS011;57194;50.156;14.518;2022-07-30T09:22:50;13.13;;;9.52;;
69910;SDS011;57194;50.156;14.518;2022-07-30T09:28:03;14.10;;;9.57;;
69910;SDS011;57194;50.156;14.518;2022-07-30T09:30:42;14.32;;;10.18;;
69910;SDS011;57194;50.156;14.518;2022-07-30T09:36:06;13.25;;;9.10;;
69910;SDS011;57194;50.156;14.518;2022-07-30T09:41:31;15.50;;;9.60;;
69910;SDS011;57194;50.156;14.518;2022-07-30T09:43:59;16.08;;;10.20;;
69910;SDS011;57194;50.156;14.518;2022-07-30T09:46:47;13.05;;;9.50;;
69910;SDS011;57194;50.156;14.518;2022-07-30T09:49:16;12.40;;;9.20;;
69910;SDS011;57194;50.156;14.518;2022-07-30T09:51:43;14.03;;;8.63;;
69910;SDS011;57194;50.156;14.518;2022-07-30T09:54:08;13.57;;;9.43;;
69910;SDS011;57194;50.156;14.518;2022-07-30T09:56:34;15.77;;;9.90;;
69910;SDS011;57194;50.156;14.518;2022-07-30T09:59:00;15.05;;;9.45;;
69910;SDS011;57194;50.156;14.518;2022-07-30T10:01:26;13.40;;;9.03;;
69910;SDS011;57194;50.156;14.518;2022-07-30T10:03:52;12.50;;;9.27;;
69910;SDS011;57194;50.156;14.518;2022-07-30T10:06:17;15.10;;;8.50;;
69910;SDS011;57194;50.156;14.518;2022-07-30T10:08:44;11.38;;;7.88;;
69910;SDS011;57194;50.156;14.518;2022-07-30T10:11:12;13.45;;;7.28;;
69910;SDS011;57194;50.156;14.518;2022-07-30T10:13:39;11.30;;;7.80;;
69910;SDS011;57194;50.156;14.518;2022-07-30T10:16:06;12.30;;;8.00;;
69910;SDS011;57194;50.156;14.518;2022-07-30T10:18:32;10.02;;;7.43;;
69910;SDS011;57194;50.156;14.518;2022-07-30T10:20:58;12.10;;;7.72;;
69910;SDS011;57194;50.156;14.518;2022-07-30T10:23:25;11.23;;;7.63;;
69910;SDS011;57194;50.156;14.518;2022-07-30T10:25:57;10.27;;;7.63;;
69910;SDS011;57194;50.156;14.518;2022-07-30T10:28:23;11.45;;;7.32;;
69910;SDS011;57194;50.156;14.518;2022-07-30T10:30:50;11.73;;;6.50;;
69910;SDS011;57194;50.156;14.518;2022-07-30T10:33:17;8.65;;;6.40;;
69910;SDS011;57194;50.156;14.518;2022-07-30T10:35:42;14.97;;;6.83;;
69910;SDS011;57194;50.156;14.518;2022-07-30T10:38:09;12.73;;;6.90;;
69910;SDS011;57194;50.156;14.518;2022-07-30T10:40:39;11.50;;;6.87;;
69910;SDS011;57194;50.156;14.518;2022-07-30T10:48:40;15.48;;;7.80;;
69910;SDS011;57194;50.156;14.518;2022-07-30T10:51:05;18.60;;;9.33;;
69910;SDS011;57194;50.156;14.518;2022-07-30T10:56:10;12.82;;;8.10;;
69910;SDS011;57194;50.156;14.518;2022-07-30T10:58:56;11.82;;;8.10;;
69910;SDS011;57194;50.156;14.518;2022-07-30T11:01:21;12.30;;;8.40;;
69910;SDS011;57194;50.156;14.518;2022-07-30T11:04:16;28.40;;;8.47;;
69910;SDS011;57194;50.156;14.518;2022-07-30T11:06:45;9.98;;;7.03;;
69910;SDS011;57194;50.156;14.518;2022-07-30T11:12:07;12.90;;;7.95;;
69910;SDS011;57194;50.156;14.518;2022-07-30T11:17:14;12.40;;;8.23;;
69910;SDS011;57194;50.156;14.518;2022-07-30T11:22:32;11.90;;;8.07;;
69910;SDS011;57194;50.156;14.518;2022-07-30T11:25:08;12.80;;;7.75;;
69910;SDS011;57194;50.156;14.518;2022-07-30T11:27:54;12.88;;;7.60;;
69910;SDS011;57194;50.156;14.518;2022-07-30T11:40:34;10.93;;;7.63;;
69910;SDS011;57194;50.156;14.518;2022-07-30T11:48:30;11.05;;;7.40;;
69910;SDS011;57194;50.156;14.518;2022-07-30T11:50:56;10.60;;;7.53;;
69910;SDS011;57194;50.156;14.518;2022-07-30T11:53:21;9.00;;;7.10;;
69910;SDS011;57194;50.156;14.518;2022-07-30T11:55:55;12.18;;;7.22;;
69910;SDS011;57194;50.156;14.518;2022-07-30T11:58:32;13.07;;;8.40;;
69910;SDS011;57194;50.156;14.518;2022-07-30T12:01:02;12.93;;;7.20;;
69910;SDS011;57194;50.156;14.518;2022-07-30T12:03:30;14.63;;;7.75;;
69910;SDS011;57194;50.156;14.518;2022-07-30T12:05:56;13.15;;;6.82;;
69910;SDS011;57194;50.156;14.518;2022-07-30T12:08:27;12.23;;;7.25;;
69910;SDS011;57194;50.156;14.518;2022-07-30T12:10:54;11.83;;;7.17;;
69910;SDS011;57194;50.156;14.518;2022-07-30T12:13:25;11.25;;;7.40;;
69910;SDS011;57194;50.156;14.518;2022-07-30T12:15:51;11.43;;;8.23;;
69910;SDS011;57194;50.156;14.518;2022-07-30T12:18:24;11.23;;;8.10;;
69910;SDS011;57194;50.156;14.518;2022-07-30T12:21:00;12.23;;;8.13;;
69910;SDS011;57194;50.156;14.518;2022-07-30T12:23:27;11.60;;;8.70;;
69910;SDS011;57194;50.156;14.518;2022-07-30T12:25:53;11.43;;;8.87;;
69910;SDS011;57194;50.156;14.518;2022-07-30T12:28:29;11.35;;;8.93;;
69910;SDS011;57194;50.156;14.518;2022-07-30T12:30:57;13.93;;;9.73;;
69910;SDS011;57194;50.156;14.518;2022-07-30T12:33:24;15.85;;;9.38;;
69910;SDS011;57194;50.156;14.518;2022-07-30T12:35:51;13.43;;;9.17;;
69910;SDS011;57194;50.156;14.518;2022-07-30T12:38:18;15.38;;;8.93;;
69910;SDS011;57194;50.156;14.518;2022-07-30T12:40:55;13.35;;;10.23;;
69910;SDS011;57194;50.156;14.518;2022-07-30T12:46:09;13.90;;;9.52;;
69910;SDS011;57194;50.156;14.518;2022-07-30T12:48:35;14.20;;;9.67;;
69910;SDS011;57194;50.156;14.518;2022-07-30T12:51:07;13.13;;;9.45;;
69910;SDS011;57194;50.156;14.518;2022-07-30T12:53:34;13.30;;;9.32;;
69910;SDS011;57194;50.156;14.518;2022-07-30T12:56:12;12.90;;;8.63;;
69910;SDS011;57194;50.156;14.518;2022-07-30T12:58:39;13.23;;;10.13;;
69910;SDS011;57194;50.156;14.518;2022-07-30T13:01:05;12.63;;;9.13;;
69910;SDS011;57194;50.156;14.518;2022-07-30T13:03:31;13.00;;;9.13;;
69910;SDS011;57194;50.156;14.518;2022-07-30T13:06:10;14.03;;;9.87;;
69910;SDS011;57194;50.156;14.518;2022-07-30T13:08:56;14.05;;;10.10;;
69910;SDS011;57194;50.156;14.518;2022-07-30T13:11:23;16.70;;;10.85;;
69910;SDS011;57194;50.156;14.518;2022-07-30T13:13:50;15.50;;;10.65;;
69910;SDS011;57194;50.156;14.518;2022-07-30T13:16:17;14.07;;;9.10;;
69910;SDS011;57194;50.156;14.518;2022-07-30T13:18:44;15.77;;;10.57;;
69910;SDS011;57194;50.156;14.518;2022-07-30T13:21:10;15.38;;;9.55;;
69910;SDS011;57194;50.156;14.518;2022-07-30T13:23:37;11.73;;;9.07;;
69910;SDS011;57194;50.156;14.518;2022-07-30T13:26:04;14.18;;;10.05;;
69910;SDS011;57194;50.156;14.518;2022-07-30T13:28:30;15.80;;;9.03;;
69910;SDS011;57194;50.156;14.518;2022-07-30T13:30:57;13.45;;;8.77;;
69910;SDS011;57194;50.156;14.518;2022-07-30T13:33:23;13.60;;;9.63;;
69910;SDS011;57194;50.156;14.518;2022-07-30T13:35:48;11.80;;;8.13;;
69910;SDS011;57194;50.156;14.518;2022-07-30T13:38:13;14.87;;;9.33;;
69910;SDS011;57194;50.156;14.518;2022-07-30T13:40:39;13.77;;;8.88;;
69910;SDS011;57194;50.156;14.518;2022-07-30T13:43:05;17.83;;;10.37;;
69910;SDS011;57194;50.156;14.518;2022-07-30T13:45:30;16.65;;;9.48;;
69910;SDS011;57194;50.156;14.518;2022-07-30T13:47:56;13.97;;;8.50;;
69910;SDS011;57194;50.156;14.518;2022-07-30T13:50:21;11.63;;;7.53;;
69910;SDS011;57194;50.156;14.518;2022-07-30T13:52:47;14.83;;;9.03;;
69910;SDS011;57194;50.156;14.518;2022-07-30T13:55:12;11.82;;;7.60;;
69910;SDS011;57194;50.156;14.518;2022-07-30T13:57:38;15.10;;;9.37;;
69910;SDS011;57194;50.156;14.518;2022-07-30T14:00:04;14.83;;;8.23;;
69910;SDS011;57194;50.156;14.518;2022-07-30T14:02:31;12.75;;;8.18;;
69910;SDS011;57194;50.156;14.518;2022-07-30T14:04:58;11.50;;;7.93;;
69910;SDS011;57194;50.156;14.518;2022-07-30T14:07:24;13.38;;;9.00;;
69910;SDS011;57194;50.156;14.518;2022-07-30T14:09:49;12.97;;;8.43;;
69910;SDS011;57194;50.156;14.518;2022-07-30T14:12:14;15.90;;;9.30;;
69910;SDS011;57194;50.156;14.518;2022-07-30T14:14:40;14.77;;;9.57;;
69910;SDS011;57194;50.156;14.518;2022-07-30T14:17:05;19.65;;;10.48;;
69910;SDS011;57194;50.156;14.518;2022-07-30T14:19:31;14.17;;;9.63;;
69910;SDS011;57194;50.156;14.518;2022-07-30T14:21:56;14.37;;;9.37;;
69910;SDS011;57194;50.156;14.518;2022-07-30T14:24:21;13.50;;;8.57;;
69910;SDS011;57194;50.156;14.518;2022-07-30T14:26:47;17.47;;;10.30;;
69910;SDS011;57194;50.156;14.518;2022-07-30T14:29:13;14.73;;;8.98;;
69910;SDS011;57194;50.156;14.518;2022-07-30T14:31:38;16.10;;;10.77;;
69910;SDS011;57194;50.156;14.518;2022-07-30T14:34:04;18.63;;;10.90;;
69910;SDS011;57194;50.156;14.518;2022-07-30T14:36:30;15.93;;;10.53;;
69910;SDS011;57194;50.156;14.518;2022-07-30T14:38:56;14.75;;;8.30;;
69910;SDS011;57194;50.156;14.518;2022-07-30T14:41:21;13.90;;;8.33;;
69910;SDS011;57194;50.156;14.518;2022-07-30T14:43:47;16.20;;;9.50;;
69910;SDS011;57194;50.156;14.518;2022-07-30T14:46:12;12.97;;;8.10;;
69910;SDS011;57194;50.156;14.518;2022-07-30T14:48:38;11.73;;;7.80;;
69910;SDS011;57194;50.156;14.518;2022-07-30T14:51:03;14.37;;;8.53;;
69910;SDS011;57194;50.156;14.518;2022-07-30T14:53:30;13.27;;;9.13;;
69910;SDS011;57194;50.156;14.518;2022-07-30T14:55:55;15.10;;;9.77;;
69910;SDS011;57194;50.156;14.518;2022-07-30T14:58:21;14.37;;;9.23;;
69910;SDS011;57194;50.156;14.518;2022-07-30T15:00:46;12.30;;;7.80;;
69910;SDS011;57194;50.156;14.518;2022-07-30T15:03:12;12.02;;;8.07;;
69910;SDS011;57194;50.156;14.518;2022-07-30T15:05:37;13.10;;;7.70;;
69910;SDS011;57194;50.156;14.518;2022-07-30T15:08:02;9.50;;;7.23;;